Time;durP1;ratioP1;P1;durP2;ratioP2;P2;SDS_P1;SDS_P2;PMS_P1;PMS_P2;Temp;Humidity;BMP_temperature;BMP_pressure;BME280_temperature;BME280_humidity;BME280_pressure;Samples;Min_cycle;Max_cycle;Signal;HPM_P1;HPM_P2
2021/04/18 00:03:36;;;;;;;34.15;22.35;;;;;;;5.84;65.96;99769.84;4302202;28;33334;-85
2021/04/18 00:06:10;;;;;;;34.03;21.42;;;;;;;5.59;66.46;99768.78;4145840;28;33206;-85
2021/04/18 00:08:44;;;;;;;32.50;22.20;;;;;;;6.01;64.99;99770.00;4304192;28;33501;-84
2021/04/18 00:11:18;;;;;;;32.03;22.08;;;;;;;5.66;65.87;99769.88;4257357;29;32569;-85
2021/04/18 00:13:51;;;;;;;34.17;22.62;;;;;;;5.87;65.40;99767.84;4391296;28;35053;-84
2021/04/18 00:16:26;;;;;;;34.22;21.92;;;;;;;5.77;65.26;99766.09;4267970;28;32068;-84
2021/04/18 00:19:00;;;;;;;33.38;21.50;;;;;;;5.84;65.70;99769.84;4335264;29;31680;-84
2021/04/18 00:21:57;;;;;;;33.30;21.40;;;;;;;5.90;65.26;99762.16;4281577;28;34768;31
2021/04/18 00:24:50;;;;;;;34.88;21.12;;;;;;;6.00;65.11;99765.63;4247205;28;33363;-85
2021/04/18 00:27:24;;;;;;;33.53;21.00;;;;;;;6.19;64.61;99762.72;4237650;28;31108;-85
2021/04/18 00:29:57;;;;;;;29.12;19.62;;;;;;;6.12;64.61;99761.69;4334224;28;33594;-85
2021/04/18 00:32:30;;;;;;;34.15;21.02;;;;;;;6.06;64.89;99762.28;4223626;28;34231;-87
2021/04/18 00:35:24;;;;;;;30.30;21.85;;;;;;;6.36;63.65;99763.66;4320532;28;34586;-84
2021/04/18 00:38:19;;;;;;;32.72;20.98;;;;;;;6.35;63.98;99761.97;4333297;28;33756;-85
2021/04/18 00:41:10;;;;;;;32.55;21.42;;;;;;;6.32;64.29;99761.47;4270917;28;34248;-85
2021/04/18 00:43:43;;;;;;;31.98;21.30;;;;;;;6.18;64.67;99765.56;4249666;28;32229;-84
2021/04/18 00:46:18;;;;;;;33.30;21.37;;;;;;;6.07;65.10;99760.47;4664119;28;34720;-85
2021/04/18 00:49:17;;;;;;;33.45;21.98;;;;;;;6.12;65.11;99756.31;4391201;28;33431;-86
2021/04/18 00:51:53;;;;;;;32.20;20.20;;;;;;;6.35;64.50;99756.59;4296034;28;33959;-84
2021/04/18 00:54:30;;;;;;;29.63;21.77;;;;;;;5.90;65.74;99756.78;4265528;28;33719;31
2021/04/18 00:57:04;;;;;;;31.15;21.05;;;;;;;6.15;65.24;99750.63;4479462;28;33861;-85
2021/04/18 00:59:55;;;;;;;30.40;20.74;;;;;;;6.45;63.65;99745.75;4451394;28;33995;31
2021/04/18 01:02:33;;;;;;;34.92;21.98;;;;;;;6.23;64.22;99746.28;4426637;28;32145;-85
2021/04/18 01:05:11;;;;;;;33.97;21.77;;;;;;;6.07;64.76;99747.06;4236309;28;33705;-85
2021/04/18 01:07:47;;;;;;;33.55;21.87;;;;;;;6.13;64.92;99736.50;4342669;28;35502;-85
2021/04/18 01:10:20;;;;;;;28.70;19.85;;;;;;;6.16;65.06;99743.41;4399524;28;32907;-85
2021/04/18 01:12:54;;;;;;;31.65;20.98;;;;;;;5.97;66.12;99736.41;4237919;28;33823;-85
2021/04/18 01:15:27;;;;;;;29.25;20.17;;;;;;;6.04;66.03;99734.78;4423994;28;32205;-85
2021/04/18 01:18:00;;;;;;;31.67;20.77;;;;;;;6.13;65.59;99741.87;4337987;28;33641;-83
2021/04/18 01:20:33;;;;;;;31.60;20.62;;;;;;;5.88;66.08;99737.34;4363298;28;31642;-84
2021/04/18 01:23:07;;;;;;;29.80;19.35;;;;;;;6.28;64.39;99733.25;4211161;33;33800;-84
2021/04/18 01:25:41;;;;;;;28.60;18.65;;;;;;;6.03;64.84;99729.59;4225469;34;33611;-84
2021/04/18 01:28:29;;;;;;;28.62;19.85;;;;;;;5.97;64.87;99731.06;4213473;33;34632;-91
2021/04/18 01:31:22;;;;;;;29.50;19.20;;;;;;;6.03;64.80;99730.41;4246098;28;34054;-84
2021/04/18 01:34:08;;;;;;;34.67;21.83;;;;;;;6.01;64.39;99724.38;4337947;28;33868;-85
2021/04/18 01:36:45;;;;;;;28.05;18.37;;;;;;;5.61;66.35;99731.09;4190028;28;33516;-85
2021/04/18 01:39:28;;;;;;;27.52;19.30;;;;;;;5.81;65.59;99729.91;4301827;28;33116;-85
2021/04/18 01:42:02;;;;;;;29.20;18.67;;;;;;;5.84;65.46;99729.59;4353863;28;33639;-85
2021/04/18 01:44:34;;;;;;;27.30;19.23;;;;;;;5.89;65.16;99729.13;4346702;28;33505;-84
2021/04/18 01:47:28;;;;;;;29.70;20.45;;;;;;;5.67;65.83;99733.16;4279008;28;33713;31
2021/04/18 01:50:08;;;;;;;31.85;19.50;;;;;;;5.80;65.72;99725.53;4410203;28;33249;31
2021/04/18 01:52:41;;;;;;;30.07;19.33;;;;;;;5.77;65.66;99727.72;4492229;28;32878;-86
2021/04/18 01:55:37;;;;;;;30.00;20.30;;;;;;;6.01;65.00;99729.75;4473701;28;32964;31
2021/04/18 01:58:25;;;;;;;28.13;19.33;;;;;;;6.01;64.90;99727.06;4252030;28;34725;31
2021/04/18 02:00:59;;;;;;;29.77;19.42;;;;;;;6.14;64.51;99730.16;4503789;28;34013;-85
2021/04/18 02:03:45;;;;;;;30.70;20.60;;;;;;;5.92;65.11;99728.81;4378671;28;33202;31
2021/04/18 02:09:37;;;;;;;29.10;18.70;;;;;;;5.79;65.94;99731.94;4397036;28;32909;31
2021/04/18 02:12:31;;;;;;;27.50;19.10;;;;;;;5.93;65.41;99729.69;4506127;28;34192;-84
2021/04/18 02:15:05;;;;;;;31.90;20.95;;;;;;;6.10;64.42;99734.16;4331966;28;31484;-84
2021/04/18 02:17:40;;;;;;;31.42;20.83;;;;;;;5.87;65.00;99724.91;4314982;28;34613;31
2021/04/18 02:20:16;;;;;;;30.88;20.42;;;;;;;5.71;65.47;99726.50;4215358;28;33655;-87
2021/04/18 02:23:32;;;;;;;30.98;20.35;;;;;;;5.65;66.11;99732.47;4184396;34;34020;-86
2021/04/18 02:28:57;;;;;;;31.45;20.55;;;;;;;5.92;65.27;99723.44;4426613;28;32940;-84
2021/04/18 02:31:32;;;;;;;28.40;18.70;;;;;;;5.63;66.25;99732.63;4266241;28;36059;-84
2021/04/18 02:37:05;;;;;;;30.35;19.87;;;;;;;5.78;65.32;99726.72;4363601;28;33824;-84
2021/04/18 02:40:12;;;;;;;29.13;19.40;;;;;;;5.46;66.82;99718.28;4276203;29;34642;31
2021/04/18 02:42:48;;;;;;;27.70;20.25;;;;;;;5.51;67.02;99730.34;4378418;28;32593;31
2021/04/18 02:45:22;;;;;;;32.72;19.67;;;;;;;5.75;66.23;99716.28;4162110;34;34016;-83
2021/04/18 02:47:57;;;;;;;32.08;19.05;;;;;;;5.83;65.88;99714.50;4217042;29;32997;-84
2021/04/18 02:50:33;;;;;;;28.87;19.23;;;;;;;5.79;65.78;99718.50;4263383;28;33775;-83
2021/04/18 02:53:06;;;;;;;30.35;19.85;;;;;;;5.58;66.18;99723.38;4239559;28;34636;-83
2021/04/18 02:58:51;;;;;;;29.90;19.00;;;;;;;5.97;65.06;99714.94;4340035;28;33606;31
2021/04/18 03:01:25;;;;;;;30.58;20.58;;;;;;;5.76;65.46;99718.84;4287629;28;33726;-84
2021/04/18 03:03:59;;;;;;;32.92;19.73;;;;;;;5.24;67.52;99718.72;4193753;34;34192;-96
2021/04/18 03:06:43;;;;;;;33.13;21.20;;;;;;;5.81;65.84;99711.13;4259850;28;34321;-84
2021/04/18 03:09:25;;;;;;;32.08;21.55;;;;;;;5.49;67.16;99717.09;4266409;29;32898;-96
2021/04/18 03:12:26;;;;;;;31.90;19.67;;;;;;;5.43;67.95;99712.34;4149599;34;32748;-84
2021/04/18 03:15:08;;;;;;;32.28;20.70;;;;;;;5.60;67.63;99711.50;4412506;28;34372;31
2021/04/18 03:17:42;;;;;;;29.83;18.83;;;;;;;5.69;67.48;99707.03;4233357;28;33219;-83
2021/04/18 03:20:16;;;;;;;31.48;21.35;;;;;;;5.94;66.42;99707.19;4330230;28;34545;-83
2021/04/18 03:22:51;;;;;;;30.02;20.88;;;;;;;5.65;67.14;99711.03;4199971;28;34225;-84
2021/04/18 03:25:24;;;;;;;30.40;20.10;;;;;;;6.14;65.78;99703.31;4231348;28;34767;-84
2021/04/18 03:27:57;;;;;;;30.88;19.95;;;;;;;6.25;65.28;99706.72;4373883;28;33714;-85
2021/04/18 03:30:32;;;;;;;29.27;19.73;;;;;;;6.21;65.56;99710.72;4203509;28;33302;-84
2021/04/18 03:33:12;;;;;;;29.98;20.25;;;;;;;6.28;65.25;99699.19;4362234;28;33592;31
2021/04/18 03:35:51;;;;;;;32.10;19.58;;;;;;;5.97;66.29;99704.22;4332667;28;33033;-85
2021/04/18 03:38:29;;;;;;;27.30;18.50;;;;;;;6.06;66.22;99700.56;4392754;28;34712;31
2021/04/18 03:41:03;;;;;;;30.20;20.35;;;;;;;6.28;65.26;99703.72;4257194;28;32681;-83
2021/04/18 03:43:58;;;;;;;32.28;19.58;;;;;;;6.44;64.79;99700.28;4386325;28;31660;31
2021/04/18 03:46:32;;;;;;;26.48;19.30;;;;;;;6.35;65.52;99702.09;4180344;34;34310;-84
2021/04/18 03:49:04;;;;;;;33.88;21.48;;;;;;;5.95;66.92;99711.56;4199653;34;34632;-84
2021/04/18 03:51:37;;;;;;;29.15;19.45;;;;;;;6.30;66.26;99705.25;4392370;28;33102;-83
2021/04/18 03:54:18;;;;;;;30.23;19.97;;;;;;;6.40;66.12;99705.13;4210233;34;33224;-93
2021/04/18 03:57:12;;;;;;;30.80;19.27;;;;;;;6.63;65.49;99704.53;4188814;34;34668;-84
2021/04/18 03:59:45;;;;;;;28.17;19.12;;;;;;;6.69;65.20;99706.56;4199896;34;33763;-84
2021/04/18 04:02:19;;;;;;;27.05;19.37;;;;;;;6.58;65.75;99701.50;4197389;34;34174;-85
2021/04/18 04:05:03;;;;;;;29.70;19.75;;;;;;;6.48;66.37;99702.47;4204998;34;33907;-86
2021/04/18 04:08:05;;;;;;;29.27;20.42;;;;;;;6.66;66.15;99709.56;4188456;34;35012;-94
2021/04/18 04:10:47;;;;;;;31.60;20.70;;;;;;;6.88;65.56;99708.12;4446244;28;33501;31
2021/04/18 04:13:20;;;;;;;28.23;19.55;;;;;;;6.48;67.01;99707.84;4201213;34;34381;-84
2021/04/18 04:16:08;;;;;;;30.77;20.40;;;;;;;6.47;67.15;99699.97;4224365;33;33573;-95
2021/04/18 04:18:50;;;;;;;27.58;19.10;;;;;;;6.66;66.75;99709.56;4213242;33;34167;-85
2021/04/18 04:21:23;;;;;;;29.45;19.02;;;;;;;6.94;66.01;99706.63;4212868;34;33807;-84
2021/04/18 04:23:56;;;;;;;28.83;19.23;;;;;;;6.82;66.34;99703.41;4214100;34;33102;-84
2021/04/18 04:26:28;;;;;;;24.83;17.37;;;;;;;6.79;66.40;99709.94;4223324;33;33750;-84
2021/04/18 04:29:06;;;;;;;29.15;19.40;;;;;;;6.41;67.90;99705.94;4308007;28;34555;-94
2021/04/18 04:31:44;;;;;;;25.25;17.50;;;;;;;6.83;66.25;99703.25;4225248;28;32989;-84
2021/04/18 04:34:24;;;;;;;31.55;19.67;;;;;;;6.62;67.28;99705.56;4200848;34;33373;-96
2021/04/18 04:37:19;;;;;;;27.10;19.12;;;;;;;6.61;67.46;99707.38;4213349;34;33815;-96
2021/04/18 04:40:03;;;;;;;25.40;17.77;;;;;;;6.98;66.59;99708.81;4195617;34;34134;-86
2021/04/18 04:42:41;;;;;;;25.62;17.37;;;;;;;7.09;66.43;99710.34;4196902;34;34713;-96
2021/04/18 04:45:14;;;;;;;26.02;17.87;;;;;;;7.23;66.36;99709.72;4184278;34;31727;-84
2021/04/18 04:47:47;;;;;;;28.38;19.80;;;;;;;7.15;67.06;99711.53;4194189;34;33492;-84
2021/04/18 04:50:23;;;;;;;26.55;18.83;;;;;;;7.56;65.94;99717.78;4209993;34;33718;-92
2021/04/18 04:53:21;;;;;;;28.62;19.83;;;;;;;7.58;65.79;99713.06;4206836;33;34880;-96
2021/04/18 04:56:03;;;;;;;27.87;18.80;;;;;;;7.27;66.28;99712.06;4188046;34;34404;-84
2021/04/18 04:58:47;;;;;;;25.75;18.20;;;;;;;7.42;66.57;99713.06;4332049;28;33618;31
2021/04/18 05:01:45;;;;;;;31.00;20.65;;;;;;;7.75;65.61;99710.38;4285463;28;35748;-85
2021/04/18 05:04:19;;;;;;;27.42;18.83;;;;;;;7.60;66.39;99715.59;4416732;28;32893;-94
2021/04/18 05:06:56;;;;;;;29.30;18.55;;;;;;;7.76;66.24;99712.06;4224025;33;33417;-84
2021/04/18 05:09:29;;;;;;;25.45;17.42;;;;;;;7.74;66.13;99706.03;4204412;34;35093;-84
2021/04/18 05:12:04;;;;;;;27.23;18.92;;;;;;;8.06;65.41;99709.66;4207786;34;34397;-83
2021/04/18 05:14:37;;;;;;;27.77;19.20;;;;;;;8.01;65.96;99709.31;4208610;34;33869;-84
2021/04/18 05:17:10;;;;;;;27.87;19.58;;;;;;;8.14;66.21;99715.00;4194708;34;34617;-96
2021/04/18 05:19:49;;;;;;;25.90;18.20;;;;;;;8.11;66.13;99715.34;4182095;34;34397;-95
2021/04/18 05:22:22;;;;;;;25.05;17.87;;;;;;;8.40;65.41;99712.06;4172178;34;32284;-85
2021/04/18 05:24:55;;;;;;;24.05;18.00;;;;;;;8.33;65.27;99708.38;4193316;34;34551;-96
2021/04/18 05:27:27;;;;;;;25.40;17.75;;;;;;;8.64;64.51;99708.47;4205631;34;33240;-96
2021/04/18 05:30:04;;;;;;;26.48;19.20;;;;;;;8.90;64.08;99704.63;4192732;34;32442;-85
2021/04/18 05:32:36;;;;;;;27.77;18.92;;;;;;;8.98;63.75;99709.97;4205408;34;33802;-85
2021/04/18 05:35:10;;;;;;;27.37;18.35;;;;;;;8.93;63.98;99715.03;4214645;34;33708;-96
2021/04/18 05:37:43;;;;;;;27.75;19.58;;;;;;;8.99;63.89;99714.31;4194197;34;33465;-85
2021/04/18 05:40:16;;;;;;;26.70;19.20;;;;;;;9.11;63.69;99713.94;4212879;33;33730;-85
2021/04/18 05:42:50;;;;;;;29.33;19.73;;;;;;;9.00;63.95;99710.63;4204967;34;33711;-85
2021/04/18 05:45:27;;;;;;;26.10;18.65;;;;;;;9.22;63.70;99712.69;4206237;34;33751;-96
2021/04/18 05:48:07;;;;;;;25.80;19.10;;;;;;;9.26;63.91;99714.84;4195587;34;31782;-96
2021/04/18 05:50:45;;;;;;;26.83;19.95;;;;;;;9.28;64.08;99715.50;4183410;34;34071;-86
2021/04/18 05:53:17;;;;;;;31.35;19.60;;;;;;;9.20;64.60;99715.56;4205022;34;33842;-85
2021/04/18 05:55:49;;;;;;;31.95;21.35;;;;;;;9.01;65.41;99717.72;4211421;34;34564;-85
2021/04/18 05:58:27;;;;;;;29.48;20.88;;;;;;;9.27;64.81;99715.69;4221906;34;34171;-86
2021/04/18 06:01:23;;;;;;;32.70;20.73;;;;;;;9.40;63.79;99720.47;4197123;34;34263;-84
2021/04/18 06:04:05;;;;;;;29.95;20.35;;;;;;;9.32;64.21;99722.19;4211136;34;35193;-88
2021/04/18 06:06:47;;;;;;;31.50;21.75;;;;;;;9.54;63.96;99720.53;4197867;34;35200;-93
2021/04/18 06:12:52;;;;;;;29.10;20.73;;;;;;;9.95;63.22;99708.50;4182391;28;34097;-85
2021/04/18 06:18:58;;;;;;;28.02;20.58;;;;;;;10.07;62.74;99704.34;4179484;28;32085;-88
2021/04/18 06:21:32;;;;;;;26.40;19.00;;;;;;;10.18;63.12;99704.88;4346912;28;32510;-89
2021/04/18 06:24:05;;;;;;;29.48;22.02;;;;;;;10.41;62.48;99708.38;4239958;28;34679;-86
2021/04/18 06:26:47;;;;;;;27.10;20.70;;;;;;;10.68;61.91;99708.72;4292576;28;34148;-85
2021/04/18 06:29:41;;;;;;;28.42;20.33;;;;;;;10.87;61.60;99719.97;4207945;28;34309;-92
2021/04/18 06:32:41;;;;;;;28.98;19.95;;;;;;;11.18;61.04;99711.56;4364809;29;33919;-84
2021/04/18 06:35:32;;;;;;;28.00;21.00;;;;;;;11.47;60.43;99718.72;4199501;28;33353;31
2021/04/18 06:38:16;;;;;;;26.45;19.42;;;;;;;11.48;60.58;99709.59;4154398;34;33242;-95
2021/04/18 06:40:54;;;;;;;26.85;20.40;;;;;;;11.71;59.63;99713.94;4156179;34;33635;-85
2021/04/18 06:43:27;;;;;;;29.15;21.52;;;;;;;11.98;59.57;99708.78;4171177;34;33243;-95
2021/04/18 06:46:05;;;;;;;31.48;22.35;;;;;;;12.19;58.85;99705.16;4175038;34;34378;-96
2021/04/18 06:48:40;;;;;;;32.58;21.73;;;;;;;12.36;56.84;99709.22;4157509;34;33193;-85
2021/04/18 06:51:20;;;;;;;29.30;21.30;;;;;;;12.25;58.54;99708.97;4157474;34;34274;-96
2021/04/18 06:53:58;;;;;;;31.58;22.83;;;;;;;12.23;57.97;99711.87;4157824;34;33900;-85
2021/04/18 06:56:34;;;;;;;30.50;21.65;;;;;;;12.13;58.42;99711.37;4177173;34;33581;-86
2021/04/18 06:59:06;;;;;;;28.55;20.88;;;;;;;12.41;57.62;99711.34;4179748;34;33749;-85
2021/04/18 07:01:39;;;;;;;27.65;21.48;;;;;;;12.28;58.09;99720.22;4167609;34;33887;-85
2021/04/18 07:07:29;;;;;;;30.48;23.33;;;;;;;12.74;57.25;99707.09;4197352;34;33288;-85
2021/04/18 07:10:07;;;;;;;25.85;20.60;;;;;;;12.91;56.61;99707.59;4212981;33;33329;-85
2021/04/18 07:12:41;;;;;;;28.60;20.60;;;;;;;13.10;53.29;99701.41;4207884;34;33634;-85
2021/04/18 07:15:39;;;;;;;32.28;20.17;;;;;;;12.84;55.55;99707.56;4209040;34;34111;-85
2021/04/18 07:18:38;;;;;;;28.08;21.10;;;;;;;13.07;54.66;99701.81;4209979;34;34499;-85
2021/04/18 07:21:14;;;;;;;28.75;21.12;;;;;;;13.35;53.07;99700.81;4207438;33;34044;-96
2021/04/18 07:24:04;;;;;;;25.92;19.92;;;;;;;13.16;53.08;99697.84;4409532;28;34725;-84
2021/04/18 07:26:37;;;;;;;26.20;19.55;;;;;;;13.32;54.48;99703.94;4218878;34;32982;-84
2021/04/18 07:29:21;;;;;;;28.20;20.62;;;;;;;13.05;54.27;99699.28;4187961;34;34756;-96
2021/04/18 07:32:30;;;;;;;26.92;20.70;;;;;;;13.35;52.67;99701.69;4234065;28;428393;-95
2021/04/18 07:35:32;;;;;;;28.00;21.17;;;;;;;13.59;52.87;99699.38;4402156;28;34226;31
2021/04/18 07:38:24;;;;;;;27.62;20.35;;;;;;;13.45;54.37;99703.16;4174023;34;32784;-86
2021/04/18 07:41:05;;;;;;;25.48;19.62;;;;;;;13.67;51.59;99696.47;4187880;34;35142;-86
2021/04/18 07:50:48;;;;;;;27.30;19.45;;;;;;;13.41;52.51;99687.28;4533788;28;21089;31
2021/04/18 07:53:49;;;;;;;29.73;20.17;;;;;;;12.98;51.87;99690.28;4237764;29;20217;-84
2021/04/18 07:56:21;;;;;;;28.73;20.48;;;;;;;12.63;52.89;99692.25;4291282;29;34391;-85
2021/04/18 07:58:58;;;;;;;32.15;21.87;;;;;;;12.64;54.11;99691.22;4161616;34;32440;-93
2021/04/18 08:01:39;;;;;;;36.63;21.45;;;;;;;12.37;54.98;99697.34;4151401;34;32786;-96
2021/04/18 08:04:18;;;;;;;25.02;19.95;;;;;;;12.78;54.77;99701.06;4158339;34;36042;-96
2021/04/18 08:06:53;;;;;;;26.33;19.80;;;;;;;13.18;54.32;99693.03;4133449;34;32667;-85
2021/04/18 08:09:33;;;;;;;25.67;20.23;;;;;;;13.59;52.55;99693.97;4162000;34;34391;-85
2021/04/18 08:12:06;;;;;;;25.70;20.17;;;;;;;13.52;52.15;99693.97;4176009;34;33437;-85
2021/04/18 08:14:45;;;;;;;25.65;20.33;;;;;;;13.34;52.42;99697.28;4205879;29;33665;-85
2021/04/18 08:42:00;;;;;;;26.02;19.87;;;;;;;13.77;52.05;99705.06;4379448;28;34323;-86
2021/04/18 08:44:38;;;;;;;27.80;20.50;;;;;;;14.04;49.70;99696.87;4352683;28;33768;-85
2021/04/18 08:47:19;;;;;;;25.73;19.60;;;;;;;14.08;49.60;99697.28;4580095;28;33363;-84
2021/04/18 08:53:55;;;;;;;23.92;18.17;;;;;;;14.52;49.51;99694.88;4964250;28;20079;31
2021/04/18 09:12:41;;;;;;;21.92;16.58;;;;;;;14.85;45.08;99697.50;4334501;28;34220;31
2021/04/18 09:15:46;;;;;;;28.80;19.10;;;;;;;15.28;44.42;99693.28;4249001;28;20115;-87
2021/04/18 09:18:43;;;;;;;24.90;18.35;;;;;;;15.63;46.70;99699.09;4510971;28;33256;31
2021/04/18 09:21:49;;;;;;;24.00;19.20;;;;;;;15.75;43.55;99693.78;4278486;28;35155;-94
2021/04/18 09:25:33;;;;;;;23.98;17.70;;;;;;;14.51;46.47;99690.50;4231358;28;34243;-88
2021/04/18 09:35:12;;;;;;;20.33;16.65;;;;;;;16.35;42.59;99693.22;4308360;28;36107;31
2021/04/18 09:37:57;;;;;;;17.70;14.70;;;;;;;16.65;40.09;99684.28;4364194;28;33880;-88
2021/04/18 09:40:38;;;;;;;22.25;14.82;;;;;;;16.82;41.74;99679.00;4461025;28;33673;-86
2021/04/18 09:43:48;;;;;;;16.60;10.48;;;;;;;17.24;39.79;99678.25;4218022;28;33778;-96
2021/04/18 09:46:47;;;;;;;9.90;8.05;;;;;;;16.73;38.15;99686.69;4265393;28;33637;31
2021/04/18 09:52:52;;;;;;;10.03;7.70;;;;;;;17.66;35.16;99672.75;3951035;32;20103;-92
2021/04/18 09:55:50;;;;;;;14.75;8.50;;;;;;;17.46;34.19;99676.66;4196398;28;32191;-96
2021/04/18 09:58:54;;;;;;;12.80;8.35;;;;;;;17.81;35.43;99675.88;4236412;33;33724;-96
2021/04/18 10:02:38;;;;;;;14.05;9.57;;;;;;;16.83;35.72;99679.88;4465205;28;20109;-86
2021/04/18 10:05:14;;;;;;;13.10;9.80;;;;;;;17.77;37.29;99685.62;4213078;34;33541;-86
2021/04/18 10:12:06;;;;;;;10.48;8.23;;;;;;;17.64;34.66;99681.19;4179598;34;33369;-96
2021/04/18 10:14:44;;;;;;;9.85;7.32;;;;;;;17.32;35.03;99667.00;4169993;34;33396;-93
2021/04/18 10:17:44;;;;;;;10.68;8.35;;;;;;;17.72;35.12;99674.53;4221938;28;33573;-91
2021/04/18 10:21:23;;;;;;;10.77;7.95;;;;;;;18.03;35.88;99678.06;4163437;28;34470;-90
2021/04/18 10:24:45;;;;;;;12.25;9.52;;;;;;;17.98;34.55;99676.03;4335252;28;36044;31
2021/04/18 10:27:44;;;;;;;16.08;11.30;;;;;;;17.05;38.03;99677.47;4160710;34;32808;-96
2021/04/18 10:30:28;;;;;;;9.92;8.00;;;;;;;17.16;36.91;99681.34;4305326;28;36836;31
2021/04/18 10:33:02;;;;;;;9.30;7.03;;;;;;;16.52;38.18;99678.97;4201500;28;33797;-94
2021/04/18 10:36:01;;;;;;;8.07;5.97;;;;;;;16.65;38.43;99684.28;4422663;29;35594;-89
2021/04/18 10:38:38;;;;;;;9.07;5.80;;;;;;;16.99;37.44;99681.97;4514547;28;34369;-90
2021/04/18 10:45:34;;;;;;;8.85;5.70;;;;;;;17.08;37.30;99677.88;4381695;28;34482;31
2021/04/18 10:48:17;;;;;;;8.35;6.43;;;;;;;17.33;34.88;99674.13;4350282;28;33584;-86
2021/04/18 10:51:09;;;;;;;9.40;5.95;;;;;;;17.72;36.26;99677.28;4198619;34;35077;-90
2021/04/18 10:53:44;;;;;;;7.85;5.55;;;;;;;17.79;34.05;99671.72;4195719;34;33159;-90
2021/04/18 10:56:17;;;;;;;30.83;8.63;;;;;;;17.45;33.41;99665.97;4207615;34;32860;-96
2021/04/18 10:58:50;;;;;;;36.25;8.90;;;;;;;17.91;34.46;99658.91;4197096;34;34090;-95
2021/04/18 11:01:55;;;;;;;14.00;6.30;;;;;;;17.93;35.21;99662.22;4198871;34;33967;-87
2021/04/18 11:04:30;;;;;;;7.50;5.50;;;;;;;17.20;34.32;99660.66;4205775;34;32734;-96
2021/04/18 11:07:44;;;;;;;16.67;5.32;;;;;;;17.55;34.35;99666.22;4220413;28;32407;-96
2021/04/18 11:10:24;;;;;;;7.32;4.80;;;;;;;17.09;35.47;99662.31;4199936;34;34114;-96
2021/04/18 11:13:30;;;;;;;4.97;3.80;;;;;;;17.50;36.11;99662.53;4242331;28;34532;-96
2021/04/18 11:16:05;;;;;;;3.78;2.92;;;;;;;16.76;35.72;99674.47;4188882;34;34230;-96
2021/04/18 11:19:12;;;;;;;3.90;2.80;;;;;;;16.85;36.41;99669.53;4162053;34;31705;-96
2021/04/18 11:21:49;;;;;;;5.72;3.92;;;;;;;16.08;38.59;99672.72;4183836;34;34182;-96
2021/04/18 11:24:50;;;;;;;4.87;2.70;;;;;;;16.25;39.27;99665.63;4192590;34;34307;-96
2021/04/18 11:28:07;;;;;;;4.12;2.92;;;;;;;16.34;36.96;99667.00;4176279;28;32197;-94
2021/04/18 11:31:15;;;;;;;2.90;2.55;;;;;;;16.36;37.76;99664.91;4181311;34;31592;-96
2021/04/18 11:34:03;;;;;;;5.80;4.20;;;;;;;16.64;39.24;99666.22;4186772;34;33939;-94
2021/04/18 11:40:03;;;;;;;5.68;4.35;;;;;;;17.06;39.34;99660.84;4213887;28;32791;-85
2021/04/18 11:42:37;;;;;;;6.10;4.60;;;;;;;17.22;38.12;99664.00;4344844;28;34041;-88
2021/04/18 11:45:28;;;;;;;5.82;4.00;;;;;;;16.75;38.73;99657.28;4267310;28;32664;-96
2021/04/18 11:48:07;;;;;;;5.87;4.12;;;;;;;16.73;38.46;99658.56;4215649;34;34250;-94
2021/04/18 11:50:51;;;;;;;5.87;3.75;;;;;;;16.96;40.12;99663.34;4349479;28;34409;-91
2021/04/18 11:53:57;;;;;;;6.53;5.00;;;;;;;17.21;39.15;99662.34;4436641;28;33987;-92
2021/04/18 11:56:31;;;;;;;10.25;6.65;;;;;;;17.06;39.34;99663.59;4199650;29;34743;-94
2021/04/18 11:59:12;;;;;;;19.70;9.35;;;;;;;17.07;39.55;99665.25;4381700;28;33646;-89
2021/04/18 12:01:49;;;;;;;10.30;5.90;;;;;;;16.92;39.91;99662.94;4258462;28;34320;-90
2021/04/18 12:04:45;;;;;;;7.87;5.32;;;;;;;17.43;37.70;99659.91;4254447;28;33262;-96
2021/04/18 12:11:09;;;;;;;11.65;7.90;;;;;;;17.83;37.61;99657.34;4201810;34;34945;-88
2021/04/18 12:13:45;;;;;;;6.70;5.43;;;;;;;17.54;37.69;99661.00;4216428;34;33635;-96
2021/04/18 12:16:51;;;;;;;10.60;6.90;;;;;;;17.50;38.36;99662.53;4228271;28;33154;31
2021/04/18 12:23:20;;;;;;;10.25;7.28;;;;;;;16.35;39.99;99660.50;4237879;33;20162;-96
2021/04/18 12:25:57;;;;;;;7.60;6.25;;;;;;;17.31;39.97;99654.41;4214298;33;33490;-88
2021/04/18 12:28:30;;;;;;;8.98;6.03;;;;;;;17.47;39.24;99655.66;4205440;33;32909;-88
2021/04/18 12:31:03;;;;;;;7.75;6.55;;;;;;;16.82;39.13;99651.72;4285183;28;34552;-89
2021/04/18 12:33:55;;;;;;;7.72;6.37;;;;;;;17.20;38.95;99655.19;4259790;28;34313;31
2021/04/18 12:41:21;;;;;;;7.38;6.38;;;;;;;18.09;36.77;99655.22;4781230;28;20066;31
2021/04/18 12:44:18;;;;;;;10.68;7.92;;;;;;;18.23;36.22;99657.69;4453493;28;33669;31
2021/04/18 12:47:39;;;;;;;12.55;8.13;;;;;;;18.78;35.71;99646.25;4195885;28;35310;-90
2021/04/18 12:51:27;;;;;;;11.10;6.83;;;;;;;19.40;37.75;99652.88;4308789;28;32853;31
2021/04/18 12:54:31;;;;;;;10.15;7.70;;;;;;;18.45;36.14;99653.25;4233283;28;33011;-94
2021/04/18 12:57:51;;;;;;;8.80;6.68;;;;;;;18.14;36.58;99652.63;4073895;34;34776;-87
2021/04/18 13:00:25;;;;;;;7.93;6.18;;;;;;;18.27;36.85;99650.69;4131562;34;32746;-93
2021/04/18 13:02:58;;;;;;;6.82;5.50;;;;;;;17.53;37.73;99651.13;4132378;34;33722;-89
2021/04/18 13:06:15;;;;;;;7.95;6.25;;;;;;;16.67;39.94;99646.66;4119905;34;33569;-95
2021/04/18 13:08:58;;;;;;;9.35;6.10;;;;;;;16.02;39.95;99648.06;4123109;34;33558;-88
2021/04/18 13:11:31;;;;;;;9.70;7.95;;;;;;;15.79;41.15;99651.41;4123342;34;35164;-88
2021/04/18 13:14:10;;;;;;;10.32;8.55;;;;;;;16.16;41.19;99653.38;4136384;34;34320;-94
2021/04/18 13:17:16;;;;;;;9.02;7.40;;;;;;;16.00;40.94;99661.09;4149161;34;33675;-94
2021/04/18 13:20:04;;;;;;;9.80;7.72;;;;;;;15.71;41.80;99659.84;4148163;34;33703;-89
2021/04/18 13:22:38;;;;;;;11.45;7.82;;;;;;;15.84;42.50;99661.66;4175141;34;33387;-88
2021/04/18 13:25:18;;;;;;;10.15;7.90;;;;;;;16.41;42.37;99651.41;4187332;34;33574;-88
2021/04/18 13:27:53;;;;;;;9.65;7.85;;;;;;;16.02;43.14;99660.84;4188890;34;32997;-87
2021/04/18 13:30:28;;;;;;;10.70;7.72;;;;;;;15.52;44.57;99665.25;4190567;34;32753;-96
2021/04/18 13:33:28;;;;;;;11.32;8.27;;;;;;;14.42;45.77;99660.81;4176869;34;33614;-88
2021/04/18 13:36:05;;;;;;;13.48;8.75;;;;;;;14.81;46.05;99664.44;4176915;34;34032;-91
2021/04/18 13:38:41;;;;;;;11.80;9.07;;;;;;;14.85;47.31;99659.41;4175826;34;34098;-88
2021/04/18 13:41:21;;;;;;;9.77;7.75;;;;;;;14.86;48.09;99661.06;4177142;34;34681;-87
2021/04/18 13:43:55;;;;;;;10.13;8.40;;;;;;;15.07;48.07;99657.16;4175309;34;34542;-96
2021/04/18 13:46:28;;;;;;;24.77;22.25;;;;;;;15.17;48.80;99659.44;4186539;34;33920;-87
2021/04/18 13:49:05;;;;;;;9.85;8.00;;;;;;;15.36;48.76;99661.19;4188423;34;31710;-96
2021/04/18 13:51:49;;;;;;;12.43;7.68;;;;;;;14.98;47.48;99662.06;4189888;34;34645;-89
2021/04/18 13:54:24;;;;;;;17.27;15.57;;;;;;;14.90;48.84;99667.75;4184940;34;33765;-90
2021/04/18 13:57:20;;;;;;;15.82;11.48;;;;;;;14.89;48.45;99670.69;4125992;34;34887;-89
2021/04/18 13:59:54;;;;;;;11.32;8.73;;;;;;;15.18;48.30;99663.81;4191008;34;33530;-89
2021/04/18 14:02:31;;;;;;;11.57;7.47;;;;;;;15.10;49.57;99672.25;4200113;34;33595;-89
2021/04/18 14:05:08;;;;;;;11.65;7.43;;;;;;;15.04;49.49;99667.69;4179518;34;33490;-91
2021/04/18 14:07:44;;;;;;;9.13;7.45;;;;;;;15.34;49.61;99667.88;4200489;34;33764;-96
2021/04/18 14:10:20;;;;;;;9.75;8.45;;;;;;;14.57;50.68;99665.16;4201114;34;36408;-90
2021/04/18 14:13:44;;;;;;;9.02;6.85;;;;;;;14.40;51.46;99670.22;4137029;34;34693;-92
2021/04/18 14:16:21;;;;;;;9.60;7.15;;;;;;;14.25;51.12;99671.34;4176732;34;34670;-93
2021/04/18 14:19:05;;;;;;;9.73;7.22;;;;;;;14.17;51.90;99668.81;4166811;34;34217;-96
2021/04/18 14:21:41;;;;;;;13.00;8.45;;;;;;;13.84;53.30;99669.72;4165555;34;33136;-96
2021/04/18 14:24:19;;;;;;;11.10;9.02;;;;;;;13.73;54.74;99671.19;4165067;34;32462;-91
2021/04/18 14:26:57;;;;;;;11.50;8.57;;;;;;;13.32;56.14;99676.78;4188546;34;33646;-95
2021/04/18 14:29:30;;;;;;;10.63;8.52;;;;;;;13.38;56.99;99670.56;4189165;34;33342;-88
2021/04/18 14:32:07;;;;;;;10.98;9.30;;;;;;;13.54;56.52;99675.56;4190613;34;34377;-90